Time;durP1;ratioP1;P1;durP2;ratioP2;P2;SDS_P1;SDS_P2;PMS_P1;PMS_P2;Temp;Humidity;BMP_temperature;BMP_pressure;BME280_temperature;BME280_humidity;BME280_pressure;Samples;Min_cycle;Max_cycle;Signal;HPM_P1;HPM_P2
2022/06/27 00:02:09;;;;;;;5.15;2.58;;;;;;;17.32;100.00;95086.34;5030637;28;20087;-80
2022/06/27 00:04:34;;;;;;;4.38;2.60;;;;;;;17.35;100.00;95085.69;5027784;28;20045;-79
2022/06/27 00:07:00;;;;;;;3.58;2.38;;;;;;;17.30;100.00;95072.59;5025831;28;20041;-80
2022/06/27 00:09:25;;;;;;;5.13;2.75;;;;;;;17.10;100.00;95066.91;5026983;28;20045;-80
2022/06/27 00:11:51;;;;;;;4.43;2.58;;;;;;;17.29;100.00;95071.03;5012162;28;20042;-81
2022/06/27 00:14:16;;;;;;;7.30;2.45;;;;;;;17.27;100.00;95062.59;5030067;28;20049;-81
2022/06/27 00:16:42;;;;;;;5.35;2.50;;;;;;;17.19;100.00;95060.78;5030374;28;20038;-80
2022/06/27 00:19:08;;;;;;;5.40;2.70;;;;;;;17.19;100.00;95055.44;5028604;28;20049;-80
2022/06/27 00:21:33;;;;;;;4.00;2.67;;;;;;;17.14;100.00;95057.19;5030254;28;20041;-80
2022/06/27 00:23:58;;;;;;;4.35;2.85;;;;;;;16.97;100.00;95049.31;5030184;28;20065;-81
2022/06/27 00:26:24;;;;;;;4.03;2.60;;;;;;;17.05;100.00;95061.00;5012724;28;20053;-81
2022/06/27 00:28:49;;;;;;;6.53;2.67;;;;;;;17.03;100.00;95061.31;5027609;28;20042;-80
2022/06/27 00:31:15;;;;;;;3.78;2.63;;;;;;;17.04;100.00;95064.75;5012641;28;20049;-80
2022/06/27 00:33:41;;;;;;;6.28;2.60;;;;;;;17.01;100.00;95071.50;5030129;28;20422;-80
2022/06/27 00:36:06;;;;;;;4.00;2.60;;;;;;;16.93;100.00;95069.66;5011228;28;20045;-80
2022/06/27 00:38:32;;;;;;;7.03;2.83;;;;;;;16.99;100.00;95075.56;5011204;28;20044;-80
2022/06/27 00:40:58;;;;;;;3.53;2.55;;;;;;;16.92;100.00;95084.03;5020785;28;20045;-80
2022/06/27 00:43:23;;;;;;;4.30;2.67;;;;;;;17.06;100.00;95095.22;5030055;28;20495;-79
2022/06/27 00:45:48;;;;;;;5.57;2.70;;;;;;;16.98;100.00;95096.03;5029894;28;20060;-79
2022/06/27 00:48:14;;;;;;;4.93;2.75;;;;;;;16.96;100.00;95100.91;5015744;28;20175;-78
2022/06/27 00:50:40;;;;;;;6.45;2.80;;;;;;;17.00;100.00;95101.84;5024372;28;20042;-79
2022/06/27 00:53:10;;;;;;;4.20;2.70;;;;;;;17.04;100.00;95108.06;5030494;28;20041;-79
2022/06/27 00:55:36;;;;;;;5.82;2.88;;;;;;;17.07;100.00;95112.75;5012375;28;20064;-79
2022/06/27 00:58:02;;;;;;;3.42;2.50;;;;;;;17.11;100.00;95103.03;5011699;28;20491;-79
2022/06/27 01:00:28;;;;;;;6.40;2.70;;;;;;;17.09;100.00;95105.22;5026733;28;20045;-79
2022/06/27 01:02:53;;;;;;;3.55;2.50;;;;;;;17.10;100.00;95106.78;5029865;28;20041;-79
2022/06/27 01:05:19;;;;;;;4.22;2.90;;;;;;;17.10;100.00;95120.09;5011523;28;20419;-79
2022/06/27 01:07:44;;;;;;;6.32;2.95;;;;;;;17.07;100.00;95112.75;5029357;28;20052;-79
2022/06/27 01:10:10;;;;;;;4.75;2.72;;;;;;;17.04;100.00;95113.38;5010532;28;20064;-78
2022/06/27 01:12:42;;;;;;;4.53;2.60;;;;;;;16.95;100.00;95105.47;5028875;28;20041;-79
2022/06/27 01:15:09;;;;;;;4.90;2.80;;;;;;;17.07;100.00;95112.75;5029724;28;20486;-79
2022/06/27 01:17:35;;;;;;;5.82;2.85;;;;;;;17.04;100.00;95107.28;5023377;28;20068;-80
2022/06/27 01:20:01;;;;;;;4.85;2.60;;;;;;;17.03;100.00;95111.81;5011625;28;20050;-79
2022/06/27 01:22:26;;;;;;;4.57;2.78;;;;;;;17.07;100.00;95118.06;5030120;28;20095;-79
2022/06/27 01:24:52;;;;;;;4.03;2.75;;;;;;;17.18;100.00;95113.16;5029735;28;20045;-79
2022/06/27 01:27:17;;;;;;;5.10;2.75;;;;;;;17.21;100.00;95117.84;5012020;28;20040;-78
2022/06/27 01:29:43;;;;;;;5.85;3.22;;;;;;;17.27;100.00;95118.44;5028702;28;20048;-79
2022/06/27 01:32:09;;;;;;;10.80;3.10;;;;;;;17.28;100.00;95122.66;5029416;28;20033;-79
2022/06/27 01:34:35;;;;;;;4.30;2.80;;;;;;;17.30;100.00;95118.56;5029258;28;20072;-79
2022/06/27 01:37:01;;;;;;;4.20;3.10;;;;;;;17.41;100.00;95121.66;5024632;28;20033;-79
2022/06/27 01:39:27;;;;;;;5.57;2.92;;;;;;;17.60;100.00;95120.44;5024843;28;20096;-79
2022/06/27 01:41:58;;;;;;;4.80;3.03;;;;;;;17.61;100.00;95114.00;5026107;28;20124;-79
2022/06/27 01:44:31;;;;;;;4.10;3.00;;;;;;;17.64;100.00;95126.66;5010117;28;20616;-80
2022/06/27 01:47:03;;;;;;;6.38;3.55;;;;;;;17.67;100.00;95134.78;5028401;28;20054;-80
2022/06/27 01:49:30;;;;;;;4.30;3.10;;;;;;;17.55;100.00;95124.03;5008933;28;20041;-80
2022/06/27 01:51:58;;;;;;;3.97;3.10;;;;;;;17.47;100.00;95120.34;5010309;28;20048;-79
2022/06/27 01:54:25;;;;;;;4.35;3.28;;;;;;;17.35;100.00;95122.91;5010754;28;20053;-81
2022/06/27 01:56:54;;;;;;;4.05;2.75;;;;;;;17.22;100.00;95121.28;5022496;28;20048;-80
2022/06/27 01:59:22;;;;;;;5.45;3.13;;;;;;;17.18;100.00;95117.69;5021406;28;20060;-80
2022/06/27 02:01:47;;;;;;;4.15;3.00;;;;;;;17.30;100.00;95120.47;5009920;28;20048;-80
2022/06/27 02:04:15;;;;;;;5.13;3.15;;;;;;;17.24;100.00;95127.03;5028327;28;20034;-80
2022/06/27 02:06:42;;;;;;;4.88;2.88;;;;;;;17.17;100.00;95126.75;5023839;28;20080;-80
2022/06/27 02:09:10;;;;;;;4.60;3.08;;;;;;;17.05;100.00;95140.75;5024124;28;20045;-80
2022/06/27 02:11:36;;;;;;;4.78;3.15;;;;;;;17.07;100.00;95144.66;5027417;28;20037;-80
2022/06/27 02:14:01;;;;;;;5.70;3.00;;;;;;;17.12;100.00;95130.41;5028836;28;20046;-80
2022/06/27 02:16:27;;;;;;;4.80;3.30;;;;;;;17.16;100.00;95141.19;5028446;28;20069;-79
2022/06/27 02:18:53;;;;;;;7.50;3.33;;;;;;;16.98;100.00;95143.88;5025271;28;20164;-81
2022/06/27 02:21:22;;;;;;;5.15;3.20;;;;;;;17.05;100.00;95157.50;5028214;28;20045;-81
2022/06/27 02:23:49;;;;;;;6.05;3.25;;;;;;;17.03;100.00;95154.34;5010887;28;20046;-81
2022/06/27 02:26:15;;;;;;;4.30;3.03;;;;;;;17.03;100.00;95162.34;5028695;28;20041;-81
2022/06/27 02:28:43;;;;;;;7.40;3.30;;;;;;;16.96;100.00;95159.38;5022491;28;20072;-81
2022/06/27 02:31:09;;;;;;;5.68;2.95;;;;;;;16.95;100.00;95168.44;5008385;28;20034;-81
2022/06/27 02:33:41;;;;;;;5.82;3.05;;;;;;;16.71;100.00;95176.97;5028329;28;20037;-81
2022/06/27 02:36:09;;;;;;;7.93;3.38;;;;;;;16.86;100.00;95305.88;5011117;28;20059;-80
2022/06/27 02:38:35;;;;;;;4.47;3.08;;;;;;;17.02;100.00;95292.91;5023224;28;20037;-81
2022/06/27 02:41:04;;;;;;;6.30;3.33;;;;;;;17.22;100.00;95294.13;5007771;28;20042;-81
2022/06/27 02:43:33;;;;;;;5.28;3.20;;;;;;;17.30;100.00;95242.78;5012679;28;20049;-81
2022/06/27 02:45:59;;;;;;;5.25;3.03;;;;;;;17.31;100.00;95302.84;5031357;28;20045;-80
2022/06/27 02:48:27;;;;;;;5.75;3.30;;;;;;;17.53;100.00;95272.59;5014137;28;20053;-80
2022/06/27 02:50:56;;;;;;;4.28;3.10;;;;;;;17.68;100.00;95226.03;5013087;28;20112;-80
2022/06/27 02:53:31;;;;;;;4.43;3.08;;;;;;;17.64;100.00;95283.63;5031841;28;20442;-81
2022/06/27 02:55:59;;;;;;;6.55;3.35;;;;;;;17.75;100.00;95263.56;5013637;28;20108;-82
2022/06/27 02:58:42;;;;;;;7.43;3.50;;;;;;;17.85;100.00;95246.44;5013493;28;20049;-81
2022/06/27 03:01:10;;;;;;;6.32;3.15;;;;;;;17.87;99.78;95278.06;5011242;28;20073;-80
2022/06/27 03:03:36;;;;;;;5.00;3.13;;;;;;;17.77;100.00;95282.66;5031264;28;20045;-81
2022/06/27 03:06:04;;;;;;;5.88;3.28;;;;;;;17.81;100.00;95294.22;5031463;28;20411;-81
2022/06/27 03:08:47;;;;;;;4.82;3.17;;;;;;;17.88;99.01;95287.63;5027924;28;20049;-81
2022/06/27 03:11:15;;;;;;;5.78;3.10;;;;;;;17.90;99.43;95296.03;5017248;28;20034;-81
2022/06/27 03:13:41;;;;;;;4.80;3.17;;;;;;;17.91;98.50;95308.28;5013691;28;20041;-82
2022/06/27 03:16:08;;;;;;;5.40;3.25;;;;;;;17.95;97.69;95283.38;5029618;28;20408;-81
2022/06/27 03:18:34;;;;;;;5.03;3.55;;;;;;;18.03;97.10;95279.09;5012173;28;20041;-81
2022/06/27 03:21:00;;;;;;;6.00;3.22;;;;;;;18.00;96.78;95274.41;5026175;28;20509;-82
2022/06/27 03:23:25;;;;;;;3.90;2.90;;;;;;;18.06;96.81;95289.09;5013099;28;20490;-79
2022/06/27 03:25:51;;;;;;;4.25;3.25;;;;;;;18.11;96.02;95288.91;5030557;28;20549;-80
2022/06/27 03:28:17;;;;;;;4.95;3.20;;;;;;;18.08;95.20;95281.56;5018750;28;20045;-80
2022/06/27 03:30:42;;;;;;;5.60;3.33;;;;;;;18.06;95.63;95282.97;5012973;28;20494;-80
2022/06/27 03:33:08;;;;;;;4.25;3.17;;;;;;;18.11;96.07;95280.91;5031036;28;20456;-80
2022/06/27 03:35:33;;;;;;;6.10;3.22;;;;;;;18.05;95.42;95282.22;5029262;28;20038;-80
2022/06/27 03:37:59;;;;;;;6.07;3.15;;;;;;;18.01;95.80;95291.94;5031549;28;20117;-80
2022/06/27 03:40:25;;;;;;;6.40;3.20;;;;;;;18.03;95.43;95299.59;5028717;28;20064;-80
2022/06/27 03:42:50;;;;;;;5.07;3.20;;;;;;;17.98;96.06;95303.25;5031184;28;20103;-80
2022/06/27 03:45:16;;;;;;;4.38;3.40;;;;;;;18.03;95.75;95305.72;5012416;28;20091;-79
2022/06/27 03:47:50;;;;;;;5.90;3.35;;;;;;;17.96;95.93;95316.09;5029257;28;20146;-80
2022/06/27 03:50:16;;;;;;;6.20;3.15;;;;;;;18.00;96.75;95317.81;5007894;28;20045;-81
2022/06/27 03:52:42;;;;;;;6.22;3.28;;;;;;;18.11;96.55;95331.50;5030518;28;20050;-81
2022/06/27 03:55:09;;;;;;;5.03;3.30;;;;;;;18.07;97.51;95332.47;5029241;28;20064;-80
2022/06/27 03:57:39;;;;;;;8.82;3.63;;;;;;;18.00;97.86;95332.97;5028779;28;20057;-80
2022/06/27 04:00:08;;;;;;;4.05;3.00;;;;;;;17.94;99.12;95334.25;5030169;28;20499;-80
2022/06/27 04:02:35;;;;;;;5.55;3.33;;;;;;;17.79;100.00;95331.00;5030154;28;20414;-81
2022/06/27 04:05:02;;;;;;;4.20;3.00;;;;;;;17.53;100.00;95331.13;5031137;28;20152;-81
2022/06/27 04:07:27;;;;;;;6.03;3.00;;;;;;;17.62;100.00;95328.41;5011095;28;20037;-80
2022/06/27 04:09:53;;;;;;;4.70;3.08;;;;;;;17.67;100.00;95330.91;5027780;28;20041;-81
2022/06/27 04:12:18;;;;;;;4.40;2.80;;;;;;;17.78;100.00;95331.34;5029990;28;20044;-80
2022/06/27 04:14:44;;;;;;;7.03;3.20;;;;;;;17.69;100.00;95331.38;5012184;28;20159;-80
2022/06/27 04:17:09;;;;;;;5.50;3.33;;;;;;;17.68;100.00;95337.78;5009111;28;20450;-81
2022/06/27 04:19:35;;;;;;;4.50;3.15;;;;;;;17.62;100.00;95344.38;5024860;28;20769;-80
2022/06/27 04:22:00;;;;;;;7.63;3.28;;;;;;;17.55;100.00;95344.88;5030571;28;20728;-80
2022/06/27 04:24:26;;;;;;;4.80;3.35;;;;;;;17.52;100.00;95340.19;5011815;28;20037;-80
2022/06/27 04:26:51;;;;;;;5.07;3.33;;;;;;;17.48;100.00;95331.28;5026003;28;20388;-80
2022/06/27 04:29:16;;;;;;;9.15;3.65;;;;;;;17.55;100.00;95338.78;5011729;28;20037;-80
2022/06/27 04:31:42;;;;;;;4.93;3.42;;;;;;;17.70;100.00;95340.94;5029480;28;20117;-81
2022/06/27 04:34:08;;;;;;;5.32;3.55;;;;;;;17.71;100.00;95336.38;5012210;28;20068;-80
2022/06/27 04:36:33;;;;;;;4.80;3.25;;;;;;;17.77;100.00;95346.53;5027891;28;20407;-81
2022/06/27 04:38:59;;;;;;;5.93;3.88;;;;;;;17.74;100.00;95331.22;5029449;28;20461;-81
2022/06/27 04:41:25;;;;;;;6.20;3.33;;;;;;;17.74;100.00;95333.06;5022903;28;20050;-80
2022/06/27 04:43:53;;;;;;;6.05;3.35;;;;;;;17.73;100.00;95337.63;5012159;28;20038;-81
2022/06/27 04:46:19;;;;;;;4.72;3.15;;;;;;;17.74;100.00;95331.22;5029292;28;20048;-82
2022/06/27 04:48:45;;;;;;;5.93;3.40;;;;;;;17.86;100.00;95335.03;5024723;28;20046;-82
2022/06/27 04:51:13;;;;;;;9.68;3.70;;;;;;;18.00;100.00;95335.63;5029507;28;20044;-81
2022/06/27 04:53:39;;;;;;;4.97;3.47;;;;;;;18.09;100.00;95339.06;5011790;28;20073;-82
2022/06/27 04:56:06;;;;;;;4.40;3.00;;;;;;;18.21;100.00;95346.34;5011654;28;20133;-82
2022/06/27 04:58:31;;;;;;;7.32;3.22;;;;;;;18.11;99.72;95336.84;5026818;28;20061;-81
2022/06/27 05:00:57;;;;;;;5.18;3.13;;;;;;;18.30;99.46;95335.63;5028989;28;20040;-81
2022/06/27 05:03:23;;;;;;;9.35;3.47;;;;;;;18.38;99.89;95356.13;5029204;28;20037;-80
2022/06/27 05:05:50;;;;;;;5.70;3.50;;;;;;;18.48;99.42;95347.75;5027992;28;20499;-80
2022/06/27 05:08:16;;;;;;;7.72;3.53;;;;;;;18.57;97.75;95349.59;5010117;28;20072;-81
2022/06/27 05:10:43;;;;;;;8.20;3.58;;;;;;;18.64;97.36;95355.94;5022537;28;20124;-80
2022/06/27 05:13:08;;;;;;;11.25;3.70;;;;;;;18.65;97.52;95351.41;5029323;28;20036;-81
2022/06/27 05:15:36;;;;;;;5.25;3.50;;;;;;;18.75;97.14;95356.34;5010890;28;20068;-79
2022/06/27 05:18:03;;;;;;;9.25;3.58;;;;;;;18.71;97.30;95360.78;5026531;28;20563;-80
2022/06/27 05:20:30;;;;;;;6.50;3.38;;;;;;;18.77;97.65;95362.13;5029327;28;20053;-80
2022/06/27 05:22:56;;;;;;;6.85;3.65;;;;;;;18.85;97.30;95366.63;5028935;28;20493;-79
2022/06/27 05:25:22;;;;;;;6.25;3.40;;;;;;;18.91;95.45;95361.13;5011157;28;20041;-79
2022/06/27 05:27:48;;;;;;;6.72;3.60;;;;;;;19.00;95.06;95361.84;5010650;28;20051;-80
2022/06/27 05:30:15;;;;;;;7.82;4.03;;;;;;;19.05;93.89;95364.31;5027761;28;20048;-79
2022/06/27 05:32:41;;;;;;;6.03;3.28;;;;;;;19.05;94.50;95358.97;5029253;28;20045;-80
2022/06/27 05:35:08;;;;;;;6.43;3.70;;;;;;;19.11;95.09;95356.88;5024984;28;20049;-79
2022/06/27 05:37:39;;;;;;;5.28;3.45;;;;;;;19.24;94.01;95360.34;5011103;28;20076;-79
2022/06/27 05:40:08;;;;;;;5.90;3.33;;;;;;;19.28;92.61;95363.94;5027256;28;20041;-80
2022/06/27 05:42:34;;;;;;;7.65;4.15;;;;;;;19.34;92.17;95359.97;5010266;28;20517;-80
2022/06/27 05:45:01;;;;;;;6.45;3.67;;;;;;;19.30;91.37;95369.72;5011722;28;20071;-79
2022/06/27 05:47:28;;;;;;;5.88;3.58;;;;;;;19.24;92.70;95360.34;5008722;28;20526;-79
2022/06/27 05:49:54;;;;;;;5.07;3.50;;;;;;;19.29;93.49;95365.50;5028474;28;20068;-80
2022/06/27 05:52:21;;;;;;;5.75;3.95;;;;;;;19.47;90.22;95364.22;5010354;28;20052;-80
2022/06/27 05:54:46;;;;;;;7.30;3.80;;;;;;;19.51;91.53;95375.78;5011255;28;20129;-79
2022/06/27 05:57:12;;;;;;;5.80;3.65;;;;;;;19.55;90.96;95376.69;5009353;28;20124;-79
2022/06/27 05:59:39;;;;;;;6.63;3.60;;;;;;;19.58;90.32;95374.47;5028458;28;20041;-79
2022/06/27 06:02:04;;;;;;;4.53;3.50;;;;;;;19.59;90.09;95365.38;5009897;28;20115;-80
2022/06/27 06:04:30;;;;;;;5.70;3.80;;;;;;;19.55;89.83;95366.03;5009997;28;22433;-80
2022/06/27 06:06:56;;;;;;;4.40;3.55;;;;;;;19.67;89.46;95356.50;5010762;28;20046;-80
2022/06/27 06:09:22;;;;;;;8.15;3.67;;;;;;;19.53;89.59;95352.22;5007281;28;20129;-80
2022/06/27 06:11:48;;;;;;;6.22;3.85;;;;;;;19.73;89.12;95349.81;5009720;28;20487;-79
2022/06/27 06:14:16;;;;;;;5.55;3.50;;;;;;;19.81;91.84;95350.84;5027755;28;20044;-81
2022/06/27 06:16:42;;;;;;;7.10;3.92;;;;;;;19.73;90.87;95360.50;5010962;28;20041;-78
2022/06/27 06:19:09;;;;;;;4.97;3.58;;;;;;;19.81;89.56;95351.63;5012222;28;20118;-82
2022/06/27 06:21:35;;;;;;;5.65;3.50;;;;;;;20.03;88.42;95357.66;5032427;28;20521;-85
2022/06/27 06:24:01;;;;;;;8.73;4.13;;;;;;;20.07;88.30;95345.97;5013432;28;20049;-82
2022/06/27 06:26:27;;;;;;;6.38;3.95;;;;;;;20.18;87.58;95343.63;5013539;28;20115;-82
2022/06/27 06:28:53;;;;;;;8.40;3.90;;;;;;;20.11;86.90;95348.75;5031376;28;20498;-82
2022/06/27 06:31:22;;;;;;;9.05;3.88;;;;;;;20.05;87.70;95356.19;5013023;28;20045;-85
2022/06/27 06:33:50;;;;;;;6.05;3.90;;;;;;;20.18;89.84;95365.00;5029541;28;20561;-81
2022/06/27 06:36:17;;;;;;;5.88;3.63;;;;;;;20.24;88.51;95355.66;5011219;28;20041;-86
2022/06/27 06:38:43;;;;;;;6.45;3.53;;;;;;;20.40;87.85;95354.94;5030731;28;20029;-82
2022/06/27 06:41:08;;;;;;;8.95;4.10;;;;;;;20.32;87.14;95337.94;5013361;28;20116;-81
2022/06/27 06:43:34;;;;;;;6.05;4.13;;;;;;;20.47;88.11;95344.47;5013825;28;20065;-80
2022/06/27 06:46:00;;;;;;;5.50;3.80;;;;;;;20.36;87.50;95336.16;5012795;28;20550;-79
2022/06/27 06:48:25;;;;;;;7.03;3.60;;;;;;;20.38;88.14;95336.59;5029344;28;20526;-81
2022/06/27 06:50:54;;;;;;;11.30;4.40;;;;;;;20.16;88.44;95335.16;5027179;28;20050;-80
2022/06/27 06:53:20;;;;;;;5.03;3.60;;;;;;;20.28;89.72;95330.94;5030747;28;20045;-85
2022/06/27 06:55:45;;;;;;;9.15;3.92;;;;;;;20.25;91.18;95333.16;5013642;28;20045;-82
2022/06/27 06:58:11;;;;;;;7.35;4.35;;;;;;;20.18;89.42;95330.25;5012749;28;20148;-85
2022/06/27 07:00:38;;;;;;;5.05;3.70;;;;;;;20.17;89.23;95326.06;5013834;28;20384;-82
2022/06/27 07:03:04;;;;;;;9.95;3.75;;;;;;;20.21;90.64;95320.81;5029360;28;20491;-82
2022/06/27 07:05:31;;;;;;;6.55;3.95;;;;;;;20.47;90.39;95317.75;5029524;28;20450;-80
2022/06/27 07:07:58;;;;;;;5.68;4.00;;;;;;;20.44;89.17;95323.78;5030541;28;20099;-79
2022/06/27 07:10:25;;;;;;;7.93;4.07;;;;;;;20.39;89.14;95327.47;5027046;28;20065;-80
2022/06/27 07:12:51;;;;;;;6.90;4.18;;;;;;;20.55;88.12;95335.56;5013780;28;20041;-79
2022/06/27 07:15:18;;;;;;;5.18;3.70;;;;;;;20.67;88.55;95331.34;5030488;28;20407;-79
2022/06/27 07:17:48;;;;;;;5.10;4.00;;;;;;;20.62;87.01;95328.88;5030528;28;20045;-80
2022/06/27 07:20:18;;;;;;;5.50;4.10;;;;;;;20.57;87.63;95333.34;5026066;28;20124;-80
2022/06/27 07:22:44;;;;;;;5.40;4.00;;;;;;;20.57;88.59;95322.66;5011635;28;20034;-79
2022/06/27 07:25:09;;;;;;;7.70;4.15;;;;;;;21.07;86.77;95317.16;5011640;28;20057;-79
2022/06/27 07:27:36;;;;;;;10.65;4.20;;;;;;;21.42;83.42;95322.66;5011046;28;20041;-78
2022/06/27 07:30:03;;;;;;;8.23;4.07;;;;;;;21.33;84.92;95323.94;5028336;28;20037;-82
2022/06/27 07:32:29;;;;;;;8.32;4.05;;;;;;;21.40;85.21;95308.81;5013551;28;20770;-77
2022/06/27 07:34:57;;;;;;;7.68;3.83;;;;;;;21.66;81.59;95317.53;5025530;28;20068;-79
2022/06/27 07:37:23;;;;;;;6.47;4.07;;;;;;;21.44;82.14;95308.94;5011925;28;20091;-79
2022/06/27 07:39:49;;;;;;;8.32;4.40;;;;;;;21.26;83.45;95314.63;5028181;28;20040;-80
2022/06/27 07:42:16;;;;;;;5.90;4.03;;;;;;;21.24;84.00;95321.44;5025810;28;20407;-81
2022/06/27 07:44:42;;;;;;;7.70;4.50;;;;;;;21.20;81.92;95315.19;5024784;28;20049;-80
2022/06/27 07:47:08;;;;;;;9.90;4.30;;;;;;;21.41;83.02;95314.97;5026184;28;20037;-79
2022/06/27 07:49:33;;;;;;;7.90;4.07;;;;;;;21.49;82.36;95311.34;5024082;28;20526;-80
2022/06/27 07:52:00;;;;;;;5.78;3.85;;;;;;;21.40;84.11;95316.84;5012821;28;20041;-80
2022/06/27 07:54:26;;;;;;;5.32;4.03;;;;;;;21.56;81.08;95327.63;5030475;28;20045;-80
2022/06/27 07:56:53;;;;;;;6.50;4.38;;;;;;;21.43;83.04;95316.19;5029284;28;20037;-79
2022/06/27 07:59:19;;;;;;;5.70;3.92;;;;;;;21.45;83.56;95321.22;5016088;28;20042;-81
2022/06/27 08:01:44;;;;;;;6.40;4.05;;;;;;;21.50;80.44;95318.25;5029248;28;20414;-78
2022/06/27 08:04:12;;;;;;;5.80;3.80;;;;;;;21.48;81.82;95325.88;5004246;28;20038;-79
2022/06/27 08:06:37;;;;;;;5.25;4.00;;;;;;;21.59;80.10;95316.25;5022364;28;20124;-80
2022/06/27 08:09:05;;;;;;;9.15;4.13;;;;;;;21.54;81.24;95319.16;5024754;28;20120;-81
2022/06/27 08:11:36;;;;;;;6.88;3.90;;;;;;;21.70;81.14;95311.13;5028741;28;20041;-79
2022/06/27 08:14:05;;;;;;;6.47;3.92;;;;;;;21.76;81.07;95319.69;5030940;28;20048;-81
2022/06/27 08:16:33;;;;;;;5.15;3.67;;;;;;;21.90;79.69;95325.38;5021246;28;20471;-79
2022/06/27 08:19:00;;;;;;;6.43;3.97;;;;;;;21.93;77.91;95324.69;5011284;28;20034;-81
2022/06/27 08:21:27;;;;;;;7.88;3.83;;;;;;;22.11;76.01;95324.31;5012627;28;20117;-81
2022/06/27 08:23:56;;;;;;;8.00;3.88;;;;;;;22.06;79.65;95332.63;5029967;28;20057;-78
2022/06/27 08:26:23;;;;;;;6.60;4.72;;;;;;;22.10;78.23;95328.13;5029730;28;20046;-79
2022/06/27 08:28:50;;;;;;;8.38;4.57;;;;;;;22.37;77.05;95323.00;5010946;28;20034;-80
2022/06/27 08:31:17;;;;;;;5.57;4.15;;;;;;;22.33;77.94;95322.16;5033236;28;20045;-78
2022/06/27 08:33:44;;;;;;;6.03;4.00;;;;;;;22.48;77.47;95321.34;5030608;28;20053;-77
2022/06/27 08:36:11;;;;;;;7.57;4.15;;;;;;;22.71;74.91;95323.34;5008149;28;20426;-80
2022/06/27 08:38:42;;;;;;;9.45;4.07;;;;;;;22.93;74.73;95311.91;5030841;28;20146;-80
2022/06/27 08:41:10;;;;;;;9.07;4.28;;;;;;;22.99;72.51;95307.81;5011466;28;20030;-79
2022/06/27 08:43:36;;;;;;;6.82;3.72;;;;;;;23.08;73.72;95314.88;5029556;28;20037;-78
2022/06/27 08:46:03;;;;;;;5.30;4.30;;;;;;;22.99;73.57;95307.81;5030735;28;20481;-79
2022/06/27 08:48:29;;;;;;;6.45;4.15;;;;;;;23.06;74.74;95306.38;5013684;28;20403;-82
2022/06/27 08:50:59;;;;;;;8.93;4.30;;;;;;;23.19;71.78;95310.50;5008991;28;20048;-79
2022/06/27 08:53:26;;;;;;;6.22;3.97;;;;;;;23.08;76.10;95312.19;5014890;28;20049;-78
2022/06/27 08:55:52;;;;;;;6.55;4.13;;;;;;;23.14;74.20;95308.09;5029422;28;20065;-79
2022/06/27 08:58:19;;;;;;;7.60;3.95;;;;;;;23.33;72.72;95310.78;5028202;28;20156;-79
2022/06/27 09:00:45;;;;;;;7.57;3.83;;;;;;;23.24;72.52;95307.53;5011502;28;20045;-79
2022/06/27 09:03:21;;;;;;;7.53;3.72;;;;;;;23.60;70.02;95312.75;5011640;28;20663;-79
2022/06/27 09:06:04;;;;;;;8.13;5.13;;;;;;;23.61;69.56;95304.31;5028811;28;20040;-78
2022/06/27 09:08:34;;;;;;;5.68;4.15;;;;;;;23.79;69.48;95314.59;5011093;28;20045;-79
2022/06/27 09:11:00;;;;;;;6.47;3.83;;;;;;;23.83;66.45;95307.38;5024828;28;20045;-79
2022/06/27 09:13:27;;;;;;;6.18;3.80;;;;;;;23.86;67.32;95303.94;5029329;28;20045;-79
2022/06/27 09:15:53;;;;;;;6.70;4.10;;;;;;;24.18;67.46;95303.72;5028862;28;20042;-79
2022/06/27 09:18:24;;;;;;;9.23;3.60;;;;;;;24.29;63.89;95299.22;5027969;28;20037;-79
2022/06/27 09:21:01;;;;;;;7.47;4.20;;;;;;;24.38;66.84;95294.38;5011423;28;20048;-80
2022/06/27 09:23:41;;;;;;;6.60;4.10;;;;;;;24.22;68.52;95299.13;5011389;28;20521;-80
2022/06/27 09:26:25;;;;;;;6.15;4.10;;;;;;;24.60;64.70;95294.69;5025651;28;20050;-80
2022/06/27 09:28:56;;;;;;;5.57;3.60;;;;;;;24.61;64.04;95282.00;5024928;28;20049;-80
2022/06/27 09:31:25;;;;;;;9.38;4.25;;;;;;;24.58;63.85;95286.16;5028973;28;20107;-79
2022/06/27 09:34:09;;;;;;;12.82;3.92;;;;;;;24.82;62.89;95276.88;5017063;28;20041;-79
2022/06/27 09:36:38;;;;;;;10.07;3.40;;;;;;;25.02;63.45;95279.41;5010961;28;20064;-79
2022/06/27 09:39:06;;;;;;;6.55;3.90;;;;;;;25.16;62.64;95274.16;5027977;28;20125;-78
2022/06/27 09:41:34;;;;;;;7.65;3.65;;;;;;;25.00;61.61;95279.78;5027157;28;20573;-80
2022/06/27 09:44:06;;;;;;;11.60;3.70;;;;;;;25.16;62.86;95273.41;5023566;28;20034;-80
2022/06/27 09:46:38;;;;;;;6.32;3.38;;;;;;;25.10;63.95;95280.25;5018537;28;20077;-79
2022/06/27 09:49:07;;;;;;;8.75;3.65;;;;;;;25.47;61.55;95276.78;4998634;28;20053;-80
2022/06/27 09:51:34;;;;;;;8.43;3.47;;;;;;;25.82;60.36;95275.56;5014740;28;20397;-80
2022/06/27 09:54:10;;;;;;;9.85;3.58;;;;;;;25.85;61.35;95280.19;5025356;28;20563;-80
2022/06/27 09:56:39;;;;;;;9.27;3.75;;;;;;;25.88;59.72;95269.41;5014585;28;20038;-79
2022/06/27 09:59:12;;;;;;;5.55;3.60;;;;;;;25.88;59.87;95269.41;5016287;28;20045;-80
2022/06/27 10:01:40;;;;;;;17.42;4.32;;;;;;;25.97;59.90;95268.31;5034517;28;20056;-80
2022/06/27 10:04:07;;;;;;;4.32;3.00;;;;;;;26.10;61.96;95275.78;5008668;28;20045;-81
2022/06/27 10:06:35;;;;;;;8.52;3.20;;;;;;;26.37;57.19;95275.53;5010907;28;20439;-81
2022/06/27 10:09:04;;;;;;;7.05;3.00;;;;;;;26.71;56.37;95269.94;5010580;28;20076;-79
2022/06/27 10:11:30;;;;;;;8.10;3.10;;;;;;;26.75;54.32;95276.13;5020623;28;20095;-79
2022/06/27 10:14:22;;;;;;;4.95;3.00;;;;;;;26.65;55.36;95271.44;5013614;28;20076;-79
2022/06/27 10:16:58;;;;;;;11.63;2.95;;;;;;;26.76;54.14;95277.66;5037940;28;20030;-81
2022/06/27 10:19:26;;;;;;;5.22;3.20;;;;;;;27.05;55.14;95269.66;5030882;28;20053;-79
2022/06/27 10:21:53;;;;;;;8.20;3.28;;;;;;;27.19;53.43;95265.44;5011286;28;20046;-80
2022/06/27 10:24:18;;;;;;;8.32;2.95;;;;;;;27.34;53.86;95267.06;5029645;28;20049;-80
2022/06/27 10:26:45;;;;;;;5.80;3.10;;;;;;;27.53;52.97;95267.81;5029622;28;20120;-79
2022/06/27 10:29:45;;;;;;;6.72;3.20;;;;;;;27.68;53.74;95266.66;5029040;28;20056;-79
2022/06/27 10:32:40;;;;;;;12.43;3.95;;;;;;;27.94;52.58;95259.31;4996883;28;20466;-80
2022/06/27 10:35:10;;;;;;;7.30;2.70;;;;;;;28.16;47.21;95266.25;5031342;28;20040;-79
2022/06/27 10:37:38;;;;;;;6.28;2.83;;;;;;;28.36;49.29;95265.84;5032532;28;20141;-79
2022/06/27 10:40:18;;;;;;;4.10;2.65;;;;;;;28.60;49.14;95266.13;5021653;28;20069;-79
2022/06/27 10:42:56;;;;;;;6.55;3.33;;;;;;;28.52;48.37;95260.00;5027789;28;20044;-78
2022/06/27 10:45:23;;;;;;;8.60;2.70;;;;;;;28.77;46.72;95275.38;5024826;28;20041;-78
2022/06/27 10:47:50;;;;;;;9.93;3.83;;;;;;;28.73;44.04;95259.16;5029567;28;20049;-77
2022/06/27 10:50:18;;;;;;;4.20;2.70;;;;;;;28.96;46.99;95266.00;5039920;28;20816;-77
2022/06/27 10:52:44;;;;;;;4.47;2.50;;;;;;;29.46;46.58;95268.44;5031106;28;20038;-76
2022/06/27 10:55:26;;;;;;;6.22;3.00;;;;;;;29.27;46.76;95268.97;5031440;28;20053;-76
2022/06/27 10:57:54;;;;;;;4.63;2.58;;;;;;;29.55;47.29;95257.13;5023757;28;20080;-76
2022/06/27 11:00:37;;;;;;;8.57;3.13;;;;;;;29.82;46.66;95259.25;5032686;28;20037;-76
2022/06/27 11:03:03;;;;;;;5.55;2.70;;;;;;;29.33;47.98;95261.97;5030147;28;20053;-77
2022/06/27 11:05:30;;;;;;;6.28;3.00;;;;;;;29.61;48.69;95260.19;5031390;28;20048;-77
2022/06/27 11:07:59;;;;;;;5.18;2.60;;;;;;;30.19;46.05;95255.81;5030836;28;20045;-76
2022/06/27 11:10:25;;;;;;;5.90;3.20;;;;;;;30.10;48.38;95262.91;5018166;28;20081;-77
2022/06/27 11:12:50;;;;;;;14.93;2.88;;;;;;;30.38;46.66;95256.41;5023435;28;20559;-76
2022/06/27 11:15:16;;;;;;;4.63;3.00;;;;;;;30.39;45.88;95247.88;5031882;28;20049;-78
2022/06/27 11:17:44;;;;;;;6.03;2.83;;;;;;;30.31;45.55;95265.38;5032256;28;20518;-76
2022/06/27 11:20:21;;;;;;;4.15;2.80;;;;;;;30.39;46.10;95268.81;5030500;28;20048;-77
2022/06/27 11:22:56;;;;;;;5.97;2.67;;;;;;;31.04;45.36;95273.53;5032194;28;20041;-80
2022/06/27 11:25:22;;;;;;;8.25;2.80;;;;;;;31.64;42.76;95273.09;5020476;28;20057;-79
2022/06/27 11:27:58;;;;;;;9.85;2.92;;;;;;;31.21;42.39;95277.94;5028796;28;20033;-79
2022/06/27 11:33:19;;;;;;;5.17;2.83;;;;;;;31.53;42.73;95275.94;5033728;28;20045;-79
2022/06/27 11:35:47;;;;;;;4.72;2.90;;;;;;;31.44;42.03;95276.47;5031028;28;20432;-81